createdAt,value
2022-12-26T00:04:48.129Z,67.72
2022-12-26T00:15:03.638Z,67.15
2022-12-26T00:25:31.262Z,67.07
2022-12-26T00:36:04.476Z,67.27
2022-12-26T00:46:32.074Z,67.34
2022-12-26T00:56:59.625Z,67.12
2022-12-26T01:07:27.219Z,66.86
2022-12-26T01:17:54.915Z,67.02
2022-12-26T01:28:23.117Z,67.74
2022-12-26T01:38:50.819Z,68.16
2022-12-26T01:49:22.380Z,68.58
2022-12-26T01:59:51.663Z,68.22
2022-12-26T02:10:23.418Z,68.00
2022-12-26T02:21:00.507Z,67.62
2022-12-26T02:31:35.096Z,67.31
2022-12-26T02:42:11.857Z,68.17
2022-12-26T02:53:17.378Z,68.75
2022-12-26T03:04:08.307Z,68.69
2022-12-26T03:14:42.838Z,69.10
2022-12-26T03:25:33.543Z,69.14
2022-12-26T03:36:01.778Z,68.51
2022-12-26T03:47:01.883Z,68.30
2022-12-26T03:57:56.082Z,68.63
2022-12-26T04:08:54.409Z,68.93
2022-12-26T04:19:33.515Z,69.95
2022-12-26T04:30:19.704Z,69.58
2022-12-26T04:41:08.368Z,69.73
2022-12-26T04:51:36.269Z,70.60
2022-12-26T05:02:26.813Z,71.81
2022-12-26T05:12:55.403Z,72.31
2022-12-26T05:23:42.682Z,73.34
2022-12-26T05:34:12.882Z,74.23
2022-12-26T05:44:40.652Z,74.73
2022-12-26T05:55:09.213Z,74.66
2022-12-26T06:05:36.902Z,74.96
2022-12-26T06:16:09.629Z,74.94
2022-12-26T06:26:37.923Z,75.34
2022-12-26T06:37:05.493Z,75.34
2022-12-26T06:47:33.120Z,75.42
2022-12-26T06:58:00.784Z,75.54
2022-12-26T07:08:28.401Z,75.64
2022-12-26T07:18:57.651Z,76.02
2022-12-26T07:29:25.563Z,75.97
2022-12-26T07:39:58.738Z,76.08
2022-12-26T07:50:28.029Z,76.28
2022-12-26T08:00:55.666Z,76.46
2022-12-26T08:11:23.831Z,76.22
2022-12-26T08:21:51.568Z,76.03
2022-12-26T08:32:19.169Z,76.15
2022-12-26T08:43:11.818Z,76.31
2022-12-26T08:53:36.943Z,76.38
2022-12-26T09:04:07.873Z,76.34
2022-12-26T09:14:35.487Z,76.33
2022-12-26T09:25:03.123Z,76.53
2022-12-26T09:35:30.744Z,76.46
2022-12-26T09:46:07.497Z,76.55
2022-12-26T10:07:33.124Z,76.49
2022-12-26T10:18:09.079Z,76.90
2022-12-26T10:28:40.904Z,76.89
2022-12-26T10:39:18.839Z,76.81
2022-12-26T10:49:48.936Z,76.77
2022-12-26T11:00:22.564Z,76.66
2022-12-26T11:11:05.813Z,76.57
2022-12-26T11:21:34.883Z,76.35
2022-12-26T11:32:04.389Z,76.04
2022-12-26T11:42:32.102Z,75.98
2022-12-26T11:53:16.618Z,75.84
2022-12-26T12:03:49.756Z,75.57
2022-12-26T12:14:35.706Z,75.35
2022-12-26T12:25:28.627Z,75.04
2022-12-26T12:36:04.872Z,74.57
2022-12-26T12:46:41.475Z,74.30
2022-12-26T12:57:17.367Z,74.07
2022-12-26T13:07:49.508Z,73.83
2022-12-26T13:18:23.040Z,73.61
2022-12-26T13:29:00.494Z,73.34
2022-12-26T13:39:43.240Z,73.19
2022-12-26T13:50:54.930Z,72.89
2022-12-26T14:01:40.349Z,72.65
2022-12-26T14:12:23.077Z,72.73
2022-12-26T14:23:01.378Z,72.53
2022-12-26T14:33:34.250Z,72.43
2022-12-26T14:44:16.794Z,72.37
2022-12-26T14:54:51.063Z,72.38
2022-12-26T15:05:23.937Z,72.51
2022-12-26T15:16:08.992Z,72.45
2022-12-26T15:27:22.048Z,72.21
2022-12-26T15:38:12.851Z,72.00
2022-12-26T15:48:55.011Z,71.74
2022-12-26T15:59:54.857Z,71.80
2022-12-26T16:10:34.887Z,72.39
2022-12-26T16:21:23.576Z,72.79
2022-12-26T16:31:51.234Z,73.41
2022-12-26T16:42:32.153Z,73.90
2022-12-26T16:53:16.103Z,74.55
2022-12-26T17:03:52.759Z,75.41
2022-12-26T17:14:23.722Z,76.24
2022-12-26T17:24:52.950Z,76.69
2022-12-26T17:35:25.640Z,77.09
2022-12-26T17:45:53.574Z,77.42
2022-12-26T17:56:24.350Z,77.35
2022-12-26T18:06:51.982Z,77.62
2022-12-26T18:17:19.711Z,77.56
2022-12-26T18:27:47.977Z,77.54
2022-12-26T18:38:18.036Z,77.62
2022-12-26T18:48:45.723Z,77.52
2022-12-26T18:59:13.855Z,77.25
2022-12-26T19:09:45.484Z,77.01
2022-12-26T19:20:19.993Z,76.88
2022-12-26T19:30:47.680Z,76.96
2022-12-26T19:41:18.525Z,76.82
2022-12-26T19:51:47.284Z,77.05
2022-12-26T20:02:15.331Z,76.96
2022-12-26T20:12:41.675Z,76.70
2022-12-26T20:23:09.203Z,76.88
2022-12-26T20:33:38.991Z,76.75
2022-12-26T20:44:06.847Z,76.61
2022-12-26T20:54:34.639Z,76.65
2022-12-26T21:05:02.147Z,76.77
2022-12-26T21:15:29.710Z,76.78
2022-12-26T21:26:00.391Z,76.86
2022-12-26T21:36:29.426Z,76.73
2022-12-26T21:46:56.931Z,76.48
2022-12-26T21:57:25.865Z,76.44
2022-12-26T22:07:57.687Z,76.15
2022-12-26T22:18:25.153Z,75.86
2022-12-26T22:28:53.380Z,75.75
2022-12-26T22:39:20.870Z,75.53
2022-12-26T22:49:48.529Z,75.64
2022-12-26T23:00:17.242Z,75.57
2022-12-26T23:10:46.255Z,75.47
2022-12-26T23:21:42.362Z,75.30
2022-12-26T23:32:11.589Z,75.19
2022-12-26T23:42:39.675Z,75.45
2022-12-26T23:53:07.817Z,75.59
